sensor_id;sensor_type;location;lat;lon;timestamp;P1;durP1;ratioP1;P2;durP2;ratioP2
58360;SDS011;44164;44.954;10.068;2023-05-23T00:00:42;5.10;;;4.60;;
58360;SDS011;44164;44.954;10.068;2023-05-23T00:03:08;6.15;;;4.90;;
58360;SDS011;44164;44.954;10.068;2023-05-23T00:05:35;4.95;;;4.45;;
58360;SDS011;44164;44.954;10.068;2023-05-23T00:08:01;5.47;;;4.32;;
58360;SDS011;44164;44.954;10.068;2023-05-23T00:10:27;5.28;;;4.78;;
58360;SDS011;44164;44.954;10.068;2023-05-23T00:12:53;5.88;;;5.22;;
58360;SDS011;44164;44.954;10.068;2023-05-23T00:15:20;6.57;;;4.80;;
58360;SDS011;44164;44.954;10.068;2023-05-23T00:17:47;5.55;;;5.05;;
58360;SDS011;44164;44.954;10.068;2023-05-23T00:20:13;5.68;;;5.10;;
58360;SDS011;44164;44.954;10.068;2023-05-23T00:22:40;5.55;;;5.05;;
58360;SDS011;44164;44.954;10.068;2023-05-23T00:25:09;5.47;;;4.97;;
58360;SDS011;44164;44.954;10.068;2023-05-23T00:27:35;5.65;;;4.97;;
58360;SDS011;44164;44.954;10.068;2023-05-23T00:30:02;5.63;;;5.13;;
58360;SDS011;44164;44.954;10.068;2023-05-23T00:32:28;5.47;;;4.85;;
58360;SDS011;44164;44.954;10.068;2023-05-23T00:34:54;5.95;;;5.30;;
58360;SDS011;44164;44.954;10.068;2023-05-23T00:39:48;5.07;;;4.30;;
58360;SDS011;44164;44.954;10.068;2023-05-23T00:42:14;5.90;;;4.82;;
58360;SDS011;44164;44.954;10.068;2023-05-23T00:44:40;6.00;;;5.40;;
58360;SDS011;44164;44.954;10.068;2023-05-23T00:47:06;5.65;;;4.78;;
58360;SDS011;44164;44.954;10.068;2023-05-23T00:49:33;5.65;;;4.65;;
58360;SDS011;44164;44.954;10.068;2023-05-23T00:52:00;6.70;;;6.00;;
58360;SDS011;44164;44.954;10.068;2023-05-23T00:54:27;5.88;;;5.38;;
58360;SDS011;44164;44.954;10.068;2023-05-23T00:56:55;5.53;;;5.03;;
58360;SDS011;44164;44.954;10.068;2023-05-23T00:59:23;7.40;;;5.30;;
58360;SDS011;44164;44.954;10.068;2023-05-23T01:01:50;5.25;;;4.75;;
58360;SDS011;44164;44.954;10.068;2023-05-23T01:04:17;6.80;;;5.43;;
58360;SDS011;44164;44.954;10.068;2023-05-23T01:06:45;6.20;;;5.33;;
58360;SDS011;44164;44.954;10.068;2023-05-23T01:09:12;5.22;;;4.72;;
58360;SDS011;44164;44.954;10.068;2023-05-23T01:11:42;5.40;;;4.90;;
58360;SDS011;44164;44.954;10.068;2023-05-23T01:14:48;5.78;;;5.20;;
58360;SDS011;44164;44.954;10.068;2023-05-23T01:17:22;6.10;;;5.50;;
58360;SDS011;44164;44.954;10.068;2023-05-23T01:20:07;5.68;;;5.18;;
58360;SDS011;44164;44.954;10.068;2023-05-23T01:22:58;5.75;;;5.15;;
58360;SDS011;44164;44.954;10.068;2023-05-23T01:28:18;6.00;;;5.40;;
58360;SDS011;44164;44.954;10.068;2023-05-23T01:30:47;5.97;;;5.38;;
58360;SDS011;44164;44.954;10.068;2023-05-23T01:33:16;6.28;;;4.93;;
58360;SDS011;44164;44.954;10.068;2023-05-23T01:35:44;6.15;;;5.55;;
58360;SDS011;44164;44.954;10.068;2023-05-23T01:38:10;5.45;;;4.90;;
58360;SDS011;44164;44.954;10.068;2023-05-23T01:40:38;5.63;;;5.07;;
58360;SDS011;44164;44.954;10.068;2023-05-23T01:43:04;5.40;;;4.82;;
58360;SDS011;44164;44.954;10.068;2023-05-23T01:45:30;5.25;;;4.75;;
58360;SDS011;44164;44.954;10.068;2023-05-23T01:47:56;5.88;;;5.28;;
58360;SDS011;44164;44.954;10.068;2023-05-23T01:50:23;5.97;;;5.37;;
58360;SDS011;44164;44.954;10.068;2023-05-23T01:52:50;7.78;;;6.15;;
58360;SDS011;44164;44.954;10.068;2023-05-23T01:55:18;6.00;;;5.40;;
58360;SDS011;44164;44.954;10.068;2023-05-23T01:57:51;6.00;;;5.40;;
58360;SDS011;44164;44.954;10.068;2023-05-23T02:00:20;5.97;;;5.35;;
58360;SDS011;44164;44.954;10.068;2023-05-23T02:02:46;6.05;;;5.45;;
58360;SDS011;44164;44.954;10.068;2023-05-23T02:05:15;5.95;;;5.00;;
58360;SDS011;44164;44.954;10.068;2023-05-23T02:07:41;5.47;;;4.88;;
58360;SDS011;44164;44.954;10.068;2023-05-23T02:10:08;5.68;;;4.93;;
58360;SDS011;44164;44.954;10.068;2023-05-23T02:12:34;7.85;;;5.38;;
58360;SDS011;44164;44.954;10.068;2023-05-23T02:15:00;5.57;;;5.07;;
58360;SDS011;44164;44.954;10.068;2023-05-23T02:17:26;6.47;;;5.55;;
58360;SDS011;44164;44.954;10.068;2023-05-23T02:19:52;7.78;;;5.25;;
58360;SDS011;44164;44.954;10.068;2023-05-23T02:22:21;6.38;;;5.78;;
58360;SDS011;44164;44.954;10.068;2023-05-23T02:24:49;5.93;;;5.32;;
58360;SDS011;44164;44.954;10.068;2023-05-23T02:27:15;5.95;;;5.38;;
58360;SDS011;44164;44.954;10.068;2023-05-23T02:29:42;6.78;;;5.20;;
58360;SDS011;44164;44.954;10.068;2023-05-23T02:32:08;5.72;;;5.10;;
58360;SDS011;44164;44.954;10.068;2023-05-23T02:34:34;6.47;;;5.78;;
58360;SDS011;44164;44.954;10.068;2023-05-23T02:37:00;6.15;;;5.55;;
58360;SDS011;44164;44.954;10.068;2023-05-23T02:39:26;6.90;;;6.20;;
58360;SDS011;44164;44.954;10.068;2023-05-23T02:41:54;6.37;;;5.30;;
58360;SDS011;44164;44.954;10.068;2023-05-23T02:44:20;6.32;;;5.72;;
58360;SDS011;44164;44.954;10.068;2023-05-23T02:46:46;5.35;;;4.78;;
58360;SDS011;44164;44.954;10.068;2023-05-23T02:49:12;5.85;;;4.93;;
58360;SDS011;44164;44.954;10.068;2023-05-23T02:51:38;6.38;;;5.78;;
58360;SDS011;44164;44.954;10.068;2023-05-23T02:54:04;6.28;;;5.68;;
58360;SDS011;44164;44.954;10.068;2023-05-23T02:56:34;6.47;;;5.32;;
58360;SDS011;44164;44.954;10.068;2023-05-23T02:59:00;6.22;;;5.35;;
58360;SDS011;44164;44.954;10.068;2023-05-23T03:01:26;5.43;;;4.93;;
58360;SDS011;44164;44.954;10.068;2023-05-23T03:03:52;5.88;;;5.25;;
58360;SDS011;44164;44.954;10.068;2023-05-23T03:06:19;5.70;;;5.20;;
58360;SDS011;44164;44.954;10.068;2023-05-23T03:08:47;6.60;;;4.88;;
58360;SDS011;44164;44.954;10.068;2023-05-23T03:11:13;5.68;;;5.13;;
58360;SDS011;44164;44.954;10.068;2023-05-23T03:13:39;6.13;;;5.47;;
58360;SDS011;44164;44.954;10.068;2023-05-23T03:16:05;6.57;;;4.97;;
58360;SDS011;44164;44.954;10.068;2023-05-23T03:18:31;5.53;;;5.03;;
58360;SDS011;44164;44.954;10.068;2023-05-23T03:20:57;6.15;;;5.55;;
58360;SDS011;44164;44.954;10.068;2023-05-23T03:23:23;6.03;;;5.43;;
58360;SDS011;44164;44.954;10.068;2023-05-23T03:25:49;6.68;;;5.88;;
58360;SDS011;44164;44.954;10.068;2023-05-23T03:28:15;5.95;;;5.35;;
58360;SDS011;44164;44.954;10.068;2023-05-23T03:30:41;5.85;;;5.25;;
58360;SDS011;44164;44.954;10.068;2023-05-23T03:33:07;6.03;;;5.43;;
58360;SDS011;44164;44.954;10.068;2023-05-23T03:35:34;6.20;;;5.60;;
58360;SDS011;44164;44.954;10.068;2023-05-23T03:38:00;5.88;;;5.10;;
58360;SDS011;44164;44.954;10.068;2023-05-23T03:40:26;6.55;;;4.75;;
58360;SDS011;44164;44.954;10.068;2023-05-23T03:43:02;5.85;;;5.25;;
58360;SDS011;44164;44.954;10.068;2023-05-23T03:45:31;5.55;;;5.05;;
58360;SDS011;44164;44.954;10.068;2023-05-23T03:47:58;5.82;;;5.22;;
58360;SDS011;44164;44.954;10.068;2023-05-23T03:50:24;6.55;;;5.35;;
58360;SDS011;44164;44.954;10.068;2023-05-23T03:52:51;5.63;;;5.13;;
58360;SDS011;44164;44.954;10.068;2023-05-23T03:55:18;6.18;;;5.15;;
58360;SDS011;44164;44.954;10.068;2023-05-23T03:57:50;6.95;;;5.25;;
58360;SDS011;44164;44.954;10.068;2023-05-23T04:00:19;5.38;;;4.88;;
58360;SDS011;44164;44.954;10.068;2023-05-23T04:02:48;6.32;;;5.47;;
58360;SDS011;44164;44.954;10.068;2023-05-23T04:05:17;9.65;;;4.97;;
58360;SDS011;44164;44.954;10.068;2023-05-23T04:07:44;7.35;;;5.78;;
58360;SDS011;44164;44.954;10.068;2023-05-23T04:10:11;6.32;;;5.55;;
58360;SDS011;44164;44.954;10.068;2023-05-23T04:12:37;6.60;;;5.22;;
58360;SDS011;44164;44.954;10.068;2023-05-23T04:15:08;6.35;;;5.68;;
58360;SDS011;44164;44.954;10.068;2023-05-23T04:17:45;7.47;;;5.07;;
58360;SDS011;44164;44.954;10.068;2023-05-23T04:20:11;6.20;;;5.60;;
58360;SDS011;44164;44.954;10.068;2023-05-23T04:22:37;7.38;;;5.55;;
58360;SDS011;44164;44.954;10.068;2023-05-23T04:25:04;9.43;;;5.63;;
58360;SDS011;44164;44.954;10.068;2023-05-23T04:27:35;8.18;;;5.53;;
58360;SDS011;44164;44.954;10.068;2023-05-23T04:30:06;6.75;;;5.30;;
58360;SDS011;44164;44.954;10.068;2023-05-23T04:32:36;6.95;;;5.65;;
58360;SDS011;44164;44.954;10.068;2023-05-23T04:35:03;6.18;;;5.15;;
58360;SDS011;44164;44.954;10.068;2023-05-23T04:37:30;5.95;;;5.35;;
58360;SDS011;44164;44.954;10.068;2023-05-23T04:39:58;6.00;;;5.40;;
58360;SDS011;44164;44.954;10.068;2023-05-23T04:42:38;7.13;;;5.57;;
58360;SDS011;44164;44.954;10.068;2023-05-23T04:45:24;5.70;;;4.80;;
58360;SDS011;44164;44.954;10.068;2023-05-23T04:47:58;6.38;;;5.43;;
58360;SDS011;44164;44.954;10.068;2023-05-23T04:50:44;6.30;;;5.28;;
58360;SDS011;44164;44.954;10.068;2023-05-23T04:53:12;6.70;;;5.05;;
58360;SDS011;44164;44.954;10.068;2023-05-23T04:55:39;6.07;;;5.00;;
58360;SDS011;44164;44.954;10.068;2023-05-23T04:58:11;6.05;;;4.90;;
58360;SDS011;44164;44.954;10.068;2023-05-23T05:00:38;5.88;;;5.15;;
58360;SDS011;44164;44.954;10.068;2023-05-23T05:03:05;5.90;;;5.35;;
58360;SDS011;44164;44.954;10.068;2023-05-23T05:05:32;6.65;;;5.00;;
58360;SDS011;44164;44.954;10.068;2023-05-23T05:07:58;6.65;;;5.10;;
58360;SDS011;44164;44.954;10.068;2023-05-23T05:10:24;6.00;;;5.40;;
58360;SDS011;44164;44.954;10.068;2023-05-23T05:12:50;8.88;;;5.47;;
58360;SDS011;44164;44.954;10.068;2023-05-23T05:15:17;5.82;;;5.22;;
58360;SDS011;44164;44.954;10.068;2023-05-23T05:17:46;7.22;;;5.55;;
58360;SDS011;44164;44.954;10.068;2023-05-23T05:20:15;7.90;;;5.07;;
58360;SDS011;44164;44.954;10.068;2023-05-23T05:22:42;6.30;;;5.70;;
58360;SDS011;44164;44.954;10.068;2023-05-23T05:25:10;5.72;;;5.18;;
58360;SDS011;44164;44.954;10.068;2023-05-23T05:27:37;6.30;;;5.70;;
58360;SDS011;44164;44.954;10.068;2023-05-23T05:30:06;6.82;;;6.13;;
58360;SDS011;44164;44.954;10.068;2023-05-23T05:32:40;6.43;;;5.78;;
58360;SDS011;44164;44.954;10.068;2023-05-23T05:35:07;7.20;;;6.28;;
58360;SDS011;44164;44.954;10.068;2023-05-23T05:37:34;7.28;;;6.13;;
58360;SDS011;44164;44.954;10.068;2023-05-23T05:40:01;6.82;;;6.22;;
58360;SDS011;44164;44.954;10.068;2023-05-23T05:42:31;6.60;;;6.00;;
58360;SDS011;44164;44.954;10.068;2023-05-23T05:44:58;8.40;;;6.78;;
58360;SDS011;44164;44.954;10.068;2023-05-23T05:47:24;9.63;;;6.72;;
58360;SDS011;44164;44.954;10.068;2023-05-23T05:49:50;11.23;;;6.72;;
58360;SDS011;44164;44.954;10.068;2023-05-23T05:52:16;7.95;;;6.22;;
58360;SDS011;44164;44.954;10.068;2023-05-23T05:54:42;7.53;;;6.82;;
58360;SDS011;44164;44.954;10.068;2023-05-23T05:57:08;7.25;;;6.05;;
58360;SDS011;44164;44.954;10.068;2023-05-23T05:59:34;9.20;;;6.80;;
58360;SDS011;44164;44.954;10.068;2023-05-23T06:02:01;8.63;;;6.68;;
58360;SDS011;44164;44.954;10.068;2023-05-23T06:04:27;7.50;;;6.80;;
58360;SDS011;44164;44.954;10.068;2023-05-23T06:06:55;7.70;;;6.85;;
58360;SDS011;44164;44.954;10.068;2023-05-23T06:09:21;8.32;;;7.40;;
58360;SDS011;44164;44.954;10.068;2023-05-23T06:11:47;12.05;;;6.95;;
58360;SDS011;44164;44.954;10.068;2023-05-23T06:14:14;9.27;;;6.97;;
58360;SDS011;44164;44.954;10.068;2023-05-23T06:16:43;9.45;;;6.90;;
58360;SDS011;44164;44.954;10.068;2023-05-23T06:19:09;8.32;;;7.10;;
58360;SDS011;44164;44.954;10.068;2023-05-23T06:21:37;7.80;;;7.00;;
58360;SDS011;44164;44.954;10.068;2023-05-23T06:24:05;9.02;;;6.53;;
58360;SDS011;44164;44.954;10.068;2023-05-23T06:26:31;7.90;;;7.07;;
58360;SDS011;44164;44.954;10.068;2023-05-23T06:28:58;7.72;;;6.93;;
58360;SDS011;44164;44.954;10.068;2023-05-23T06:31:24;9.13;;;7.22;;
58360;SDS011;44164;44.954;10.068;2023-05-23T06:33:50;8.35;;;7.05;;
58360;SDS011;44164;44.954;10.068;2023-05-23T06:36:16;7.30;;;6.20;;
58360;SDS011;44164;44.954;10.068;2023-05-23T06:38:42;7.90;;;7.00;;
58360;SDS011;44164;44.954;10.068;2023-05-23T06:41:08;7.65;;;6.85;;
58360;SDS011;44164;44.954;10.068;2023-05-23T06:43:35;8.15;;;6.70;;
58360;SDS011;44164;44.954;10.068;2023-05-23T06:46:22;7.28;;;6.57;;
58360;SDS011;44164;44.954;10.068;2023-05-23T06:48:48;7.75;;;6.95;;
58360;SDS011;44164;44.954;10.068;2023-05-23T06:51:14;7.75;;;6.95;;
58360;SDS011;44164;44.954;10.068;2023-05-23T06:53:41;9.63;;;6.90;;
58360;SDS011;44164;44.954;10.068;2023-05-23T06:56:07;7.47;;;6.40;;
58360;SDS011;44164;44.954;10.068;2023-05-23T06:58:42;9.88;;;7.25;;
58360;SDS011;44164;44.954;10.068;2023-05-23T07:01:09;9.40;;;7.35;;
58360;SDS011;44164;44.954;10.068;2023-05-23T07:03:41;10.32;;;6.97;;
58360;SDS011;44164;44.954;10.068;2023-05-23T07:06:11;8.70;;;7.15;;
58360;SDS011;44164;44.954;10.068;2023-05-23T07:08:39;8.32;;;7.20;;
58360;SDS011;44164;44.954;10.068;2023-05-23T07:11:05;9.32;;;6.65;;
58360;SDS011;44164;44.954;10.068;2023-05-23T07:13:43;7.95;;;6.93;;
58360;SDS011;44164;44.954;10.068;2023-05-23T07:16:16;8.32;;;7.15;;
58360;SDS011;44164;44.954;10.068;2023-05-23T07:18:56;9.35;;;7.65;;
58360;SDS011;44164;44.954;10.068;2023-05-23T07:21:22;8.18;;;7.38;;
58360;SDS011;44164;44.954;10.068;2023-05-23T07:23:49;8.50;;;7.22;;
58360;SDS011;44164;44.954;10.068;2023-05-23T07:26:15;9.48;;;7.03;;
58360;SDS011;44164;44.954;10.068;2023-05-23T07:28:51;8.93;;;7.35;;
58360;SDS011;44164;44.954;10.068;2023-05-23T07:31:17;9.05;;;8.05;;
58360;SDS011;44164;44.954;10.068;2023-05-23T07:33:44;7.85;;;7.03;;
58360;SDS011;44164;44.954;10.068;2023-05-23T07:36:15;8.00;;;7.15;;
58360;SDS011;44164;44.954;10.068;2023-05-23T07:38:41;8.15;;;7.35;;
58360;SDS011;44164;44.954;10.068;2023-05-23T07:41:07;7.82;;;7.03;;
58360;SDS011;44164;44.954;10.068;2023-05-23T07:43:34;9.73;;;8.13;;
58360;SDS011;44164;44.954;10.068;2023-05-23T07:46:00;8.00;;;7.20;;
58360;SDS011;44164;44.954;10.068;2023-05-23T07:48:26;7.15;;;6.50;;
58360;SDS011;44164;44.954;10.068;2023-05-23T07:50:52;9.18;;;7.18;;
58360;SDS011;44164;44.954;10.068;2023-05-23T07:53:20;7.82;;;7.07;;
58360;SDS011;44164;44.954;10.068;2023-05-23T07:55:49;7.75;;;7.00;;
58360;SDS011;44164;44.954;10.068;2023-05-23T07:58:16;9.13;;;7.20;;
58360;SDS011;44164;44.954;10.068;2023-05-23T08:00:43;7.60;;;6.80;;
58360;SDS011;44164;44.954;10.068;2023-05-23T08:03:23;9.90;;;7.53;;
58360;SDS011;44164;44.954;10.068;2023-05-23T08:08:28;9.30;;;7.32;;
58360;SDS011;44164;44.954;10.068;2023-05-23T08:10:54;8.27;;;7.47;;
58360;SDS011;44164;44.954;10.068;2023-05-23T08:13:25;9.30;;;7.90;;
58360;SDS011;44164;44.954;10.068;2023-05-23T08:16:11;9.68;;;7.28;;
58360;SDS011;44164;44.954;10.068;2023-05-23T08:18:37;7.80;;;7.10;;
58360;SDS011;44164;44.954;10.068;2023-05-23T08:21:05;9.35;;;7.05;;
58360;SDS011;44164;44.954;10.068;2023-05-23T08:23:31;7.82;;;7.13;;
58360;SDS011;44164;44.954;10.068;2023-05-23T08:25:57;7.75;;;7.00;;
58360;SDS011;44164;44.954;10.068;2023-05-23T08:28:24;9.75;;;7.90;;
58360;SDS011;44164;44.954;10.068;2023-05-23T08:30:53;9.55;;;7.75;;
58360;SDS011;44164;44.954;10.068;2023-05-23T08:33:21;8.18;;;7.38;;
58360;SDS011;44164;44.954;10.068;2023-05-23T08:35:51;8.43;;;7.43;;
58360;SDS011;44164;44.954;10.068;2023-05-23T08:38:18;7.72;;;6.95;;
58360;SDS011;44164;44.954;10.068;2023-05-23T08:41:00;8.63;;;7.80;;
58360;SDS011;44164;44.954;10.068;2023-05-23T08:43:28;11.35;;;7.50;;
58360;SDS011;44164;44.954;10.068;2023-05-23T08:45:55;8.18;;;7.38;;
58360;SDS011;44164;44.954;10.068;2023-05-23T08:48:22;7.63;;;6.82;;
58360;SDS011;44164;44.954;10.068;2023-05-23T08:50:51;8.35;;;7.45;;
58360;SDS011;44164;44.954;10.068;2023-05-23T08:53:19;9.35;;;8.10;;
58360;SDS011;44164;44.954;10.068;2023-05-23T08:55:52;8.57;;;7.68;;
58360;SDS011;44164;44.954;10.068;2023-05-23T08:58:21;8.88;;;7.97;;
58360;SDS011;44164;44.954;10.068;2023-05-23T09:00:53;10.50;;;8.13;;
58360;SDS011;44164;44.954;10.068;2023-05-23T09:03:21;9.00;;;8.10;;
58360;SDS011;44164;44.954;10.068;2023-05-23T09:06:12;9.13;;;8.23;;
58360;SDS011;44164;44.954;10.068;2023-05-23T09:08:40;9.13;;;8.05;;
58360;SDS011;44164;44.954;10.068;2023-05-23T09:11:07;8.88;;;7.97;;
58360;SDS011;44164;44.954;10.068;2023-05-23T09:13:36;8.88;;;7.88;;
58360;SDS011;44164;44.954;10.068;2023-05-23T09:16:08;10.40;;;8.75;;
58360;SDS011;44164;44.954;10.068;2023-05-23T09:18:43;10.57;;;8.90;;
58360;SDS011;44164;44.954;10.068;2023-05-23T09:21:12;10.23;;;9.13;;
58360;SDS011;44164;44.954;10.068;2023-05-23T09:23:48;10.18;;;9.18;;
58360;SDS011;44164;44.954;10.068;2023-05-23T09:26:15;10.43;;;9.40;;
58360;SDS011;44164;44.954;10.068;2023-05-23T09:28:41;9.60;;;8.60;;
58360;SDS011;44164;44.954;10.068;2023-05-23T09:31:08;10.77;;;9.57;;
58360;SDS011;44164;44.954;10.068;2023-05-23T09:33:45;9.95;;;8.95;;
58360;SDS011;44164;44.954;10.068;2023-05-23T09:36:16;12.10;;;9.52;;
58360;SDS011;44164;44.954;10.068;2023-05-23T09:38:44;9.55;;;8.65;;
58360;SDS011;44164;44.954;10.068;2023-05-23T09:41:12;9.75;;;8.77;;
58360;SDS011;44164;44.954;10.068;2023-05-23T09:43:39;11.00;;;9.18;;
58360;SDS011;44164;44.954;10.068;2023-05-23T09:46:14;10.55;;;9.45;;
58360;SDS011;44164;44.954;10.068;2023-05-23T09:48:45;10.05;;;9.05;;
58360;SDS011;44164;44.954;10.068;2023-05-23T09:51:20;11.13;;;9.57;;
58360;SDS011;44164;44.954;10.068;2023-05-23T09:53:46;13.55;;;9.10;;
58360;SDS011;44164;44.954;10.068;2023-05-23T09:56:14;11.18;;;9.18;;
58360;SDS011;44164;44.954;10.068;2023-05-23T09:58:50;10.07;;;9.02;;
58360;SDS011;44164;44.954;10.068;2023-05-23T10:01:17;9.80;;;8.90;;
58360;SDS011;44164;44.954;10.068;2023-05-23T10:06:12;10.80;;;9.70;;
58360;SDS011;44164;44.954;10.068;2023-05-23T10:08:45;10.38;;;8.98;;
58360;SDS011;44164;44.954;10.068;2023-05-23T10:14:08;10.57;;;8.82;;
58360;SDS011;44164;44.954;10.068;2023-05-23T10:19:28;10.25;;;8.80;;
58360;SDS011;44164;44.954;10.068;2023-05-23T10:21:59;11.00;;;9.90;;
58360;SDS011;44164;44.954;10.068;2023-05-23T10:24:27;10.13;;;9.13;;
58360;SDS011;44164;44.954;10.068;2023-05-23T10:26:54;10.57;;;9.57;;
58360;SDS011;44164;44.954;10.068;2023-05-23T10:29:21;10.20;;;9.20;;
58360;SDS011;44164;44.954;10.068;2023-05-23T10:31:48;9.97;;;9.07;;
58360;SDS011;44164;44.954;10.068;2023-05-23T10:37:23;9.95;;;8.80;;
58360;SDS011;44164;44.954;10.068;2023-05-23T10:43:13;9.90;;;9.00;;
58360;SDS011;44164;44.954;10.068;2023-05-23T10:46:03;9.63;;;8.55;;
58360;SDS011;44164;44.954;10.068;2023-05-23T10:48:33;9.68;;;8.77;;
58360;SDS011;44164;44.954;10.068;2023-05-23T10:51:09;12.13;;;9.15;;
58360;SDS011;44164;44.954;10.068;2023-05-23T10:53:40;10.07;;;8.73;;
58360;SDS011;44164;44.954;10.068;2023-05-23T10:56:07;12.00;;;9.55;;
58360;SDS011;44164;44.954;10.068;2023-05-23T10:58:35;10.90;;;9.80;;
58360;SDS011;44164;44.954;10.068;2023-05-23T11:09:13;12.48;;;11.18;;
58360;SDS011;44164;44.954;10.068;2023-05-23T11:14:18;10.85;;;9.75;;
58360;SDS011;44164;44.954;10.068;2023-05-23T11:16:45;11.10;;;9.82;;
58360;SDS011;44164;44.954;10.068;2023-05-23T11:19:20;11.52;;;10.30;;
58360;SDS011;44164;44.954;10.068;2023-05-23T11:22:01;11.80;;;10.60;;
58360;SDS011;44164;44.954;10.068;2023-05-23T11:24:46;16.85;;;10.73;;
58360;SDS011;44164;44.954;10.068;2023-05-23T11:27:15;12.27;;;10.75;;
58360;SDS011;44164;44.954;10.068;2023-05-23T11:29:54;11.38;;;10.27;;
58360;SDS011;44164;44.954;10.068;2023-05-23T11:32:22;10.27;;;9.27;;
58360;SDS011;44164;44.954;10.068;2023-05-23T11:34:48;19.92;;;10.27;;
58360;SDS011;44164;44.954;10.068;2023-05-23T11:37:14;10.77;;;9.73;;
58360;SDS011;44164;44.954;10.068;2023-05-23T11:39:42;10.73;;;9.65;;
58360;SDS011;44164;44.954;10.068;2023-05-23T11:42:08;11.45;;;9.85;;
58360;SDS011;44164;44.954;10.068;2023-05-23T11:44:34;11.30;;;10.20;;
58360;SDS011;44164;44.954;10.068;2023-05-23T11:47:04;10.55;;;9.55;;
58360;SDS011;44164;44.954;10.068;2023-05-23T11:49:35;13.02;;;9.77;;
58360;SDS011;44164;44.954;10.068;2023-05-23T11:52:05;12.75;;;9.50;;
58360;SDS011;44164;44.954;10.068;2023-05-23T11:54:32;14.07;;;9.85;;
58360;SDS011;44164;44.954;10.068;2023-05-23T11:56:58;12.85;;;9.80;;
58360;SDS011;44164;44.954;10.068;2023-05-23T11:59:25;11.05;;;9.50;;
58360;SDS011;44164;44.954;10.068;2023-05-23T12:01:51;11.38;;;8.70;;
58360;SDS011;44164;44.954;10.068;2023-05-23T12:04:17;12.07;;;9.38;;
58360;SDS011;44164;44.954;10.068;2023-05-23T12:06:47;11.23;;;9.75;;
58360;SDS011;44164;44.954;10.068;2023-05-23T12:09:14;8.85;;;8.05;;
58360;SDS011;44164;44.954;10.068;2023-05-23T12:11:41;9.82;;;8.57;;
58360;SDS011;44164;44.954;10.068;2023-05-23T12:14:08;11.45;;;9.23;;
58360;SDS011;44164;44.954;10.068;2023-05-23T12:16:34;10.50;;;9.13;;
58360;SDS011;44164;44.954;10.068;2023-05-23T12:19:01;10.05;;;8.60;;
58360;SDS011;44164;44.954;10.068;2023-05-23T12:21:44;10.18;;;9.10;;
58360;SDS011;44164;44.954;10.068;2023-05-23T12:29:27;10.85;;;8.80;;
58360;SDS011;44164;44.954;10.068;2023-05-23T12:31:54;8.52;;;7.72;;
58360;SDS011;44164;44.954;10.068;2023-05-23T12:34:22;9.00;;;8.15;;
58360;SDS011;44164;44.954;10.068;2023-05-23T12:36:49;11.65;;;9.27;;
58360;SDS011;44164;44.954;10.068;2023-05-23T12:39:23;13.07;;;8.60;;
58360;SDS011;44164;44.954;10.068;2023-05-23T12:41:51;9.45;;;8.55;;
58360;SDS011;44164;44.954;10.068;2023-05-23T12:44:17;10.00;;;8.30;;
58360;SDS011;44164;44.954;10.068;2023-05-23T12:46:44;11.77;;;8.00;;
58360;SDS011;44164;44.954;10.068;2023-05-23T12:49:10;13.52;;;9.00;;
58360;SDS011;44164;44.954;10.068;2023-05-23T12:51:37;8.55;;;7.65;;
58360;SDS011;44164;44.954;10.068;2023-05-23T12:54:03;10.30;;;7.95;;
58360;SDS011;44164;44.954;10.068;2023-05-23T12:56:29;9.35;;;7.90;;
58360;SDS011;44164;44.954;10.068;2023-05-23T12:58:56;8.38;;;7.63;;
58360;SDS011;44164;44.954;10.068;2023-05-23T13:01:22;10.00;;;7.95;;
58360;SDS011;44164;44.954;10.068;2023-05-23T13:03:49;10.32;;;7.38;;
58360;SDS011;44164;44.954;10.068;2023-05-23T13:06:15;10.23;;;7.82;;
58360;SDS011;44164;44.954;10.068;2023-05-23T13:08:41;12.60;;;8.35;;
58360;SDS011;44164;44.954;10.068;2023-05-23T13:11:07;12.15;;;9.00;;
58360;SDS011;44164;44.954;10.068;2023-05-23T13:13:33;10.70;;;8.00;;
58360;SDS011;44164;44.954;10.068;2023-05-23T13:16:00;12.57;;;8.00;;
58360;SDS011;44164;44.954;10.068;2023-05-23T13:18:26;8.32;;;7.47;;
58360;SDS011;44164;44.954;10.068;2023-05-23T13:20:52;8.63;;;7.55;;
58360;SDS011;44164;44.954;10.068;2023-05-23T13:23:18;10.15;;;7.60;;
58360;SDS011;44164;44.954;10.068;2023-05-23T13:25:44;9.38;;;7.35;;
58360;SDS011;44164;44.954;10.068;2023-05-23T13:28:10;8.32;;;7.45;;
58360;SDS011;44164;44.954;10.068;2023-05-23T13:30:36;9.80;;;7.20;;
58360;SDS011;44164;44.954;10.068;2023-05-23T13:33:02;9.73;;;7.60;;
58360;SDS011;44164;44.954;10.068;2023-05-23T13:35:29;11.65;;;7.88;;
58360;SDS011;44164;44.954;10.068;2023-05-23T13:37:55;9.10;;;7.35;;
58360;SDS011;44164;44.954;10.068;2023-05-23T13:40:22;9.73;;;7.53;;
58360;SDS011;44164;44.954;10.068;2023-05-23T13:42:48;8.18;;;7.38;;
58360;SDS011;44164;44.954;10.068;2023-05-23T13:45:18;11.65;;;8.02;;
58360;SDS011;44164;44.954;10.068;2023-05-23T13:47:44;9.23;;;8.18;;
58360;SDS011;44164;44.954;10.068;2023-05-23T13:50:11;8.25;;;7.40;;
58360;SDS011;44164;44.954;10.068;2023-05-23T13:52:37;8.38;;;7.53;;
58360;SDS011;44164;44.954;10.068;2023-05-23T13:55:03;8.85;;;7.80;;
58360;SDS011;44164;44.954;10.068;2023-05-23T13:57:30;9.90;;;7.47;;
58360;SDS011;44164;44.954;10.068;2023-05-23T13:59:56;10.80;;;7.82;;
58360;SDS011;44164;44.954;10.068;2023-05-23T14:02:22;9.60;;;7.70;;
58360;SDS011;44164;44.954;10.068;2023-05-23T14:04:48;11.93;;;7.72;;
58360;SDS011;44164;44.954;10.068;2023-05-23T14:07:15;8.18;;;7.38;;
58360;SDS011;44164;44.954;10.068;2023-05-23T14:09:42;8.65;;;7.40;;
58360;SDS011;44164;44.954;10.068;2023-05-23T14:12:08;8.20;;;7.35;;
58360;SDS011;44164;44.954;10.068;2023-05-23T14:14:34;9.60;;;7.13;;
58360;SDS011;44164;44.954;10.068;2023-05-23T14:17:00;8.77;;;7.88;;
58360;SDS011;44164;44.954;10.068;2023-05-23T14:19:26;10.10;;;7.97;;
58360;SDS011;44164;44.954;10.068;2023-05-23T14:21:52;10.20;;;7.13;;
58360;SDS011;44164;44.954;10.068;2023-05-23T14:24:19;7.97;;;7.18;;
58360;SDS011;44164;44.954;10.068;2023-05-23T14:26:46;8.75;;;7.07;;
58360;SDS011;44164;44.954;10.068;2023-05-23T14:29:12;8.00;;;6.95;;
58360;SDS011;44164;44.954;10.068;2023-05-23T14:31:38;7.88;;;6.93;;
58360;SDS011;44164;44.954;10.068;2023-05-23T14:34:04;9.35;;;7.05;;
58360;SDS011;44164;44.954;10.068;2023-05-23T14:36:30;8.48;;;7.03;;
58360;SDS011;44164;44.954;10.068;2023-05-23T14:38:57;10.57;;;7.18;;
58360;SDS011;44164;44.954;10.068;2023-05-23T14:41:23;9.65;;;7.53;;
58360;SDS011;44164;44.954;10.068;2023-05-23T14:43:49;7.53;;;6.80;;
58360;SDS011;44164;44.954;10.068;2023-05-23T14:46:18;7.45;;;6.65;;
58360;SDS011;44164;44.954;10.068;2023-05-23T14:48:44;11.52;;;7.13;;
58360;SDS011;44164;44.954;10.068;2023-05-23T14:51:10;7.55;;;6.60;;
58360;SDS011;44164;44.954;10.068;2023-05-23T14:53:37;8.10;;;7.28;;
58360;SDS011;44164;44.954;10.068;2023-05-23T14:56:03;7.43;;;6.53;;
58360;SDS011;44164;44.954;10.068;2023-05-23T14:58:29;8.57;;;7.68;;
58360;SDS011;44164;44.954;10.068;2023-05-23T15:00:55;8.45;;;6.93;;
58360;SDS011;44164;44.954;10.068;2023-05-23T15:03:21;11.05;;;6.47;;
58360;SDS011;44164;44.954;10.068;2023-05-23T15:05:48;7.95;;;7.15;;
58360;SDS011;44164;44.954;10.068;2023-05-23T15:08:14;16.98;;;7.78;;
58360;SDS011;44164;44.954;10.068;2023-05-23T15:10:41;12.98;;;6.45;;
58360;SDS011;44164;44.954;10.068;2023-05-23T15:13:09;10.82;;;7.55;;
58360;SDS011;44164;44.954;10.068;2023-05-23T15:15:36;9.25;;;7.30;;